Aérodrome :
LOGIN :

S'inscrire | Disclaimer

   EN    FR    IT 

 










Légende :    VFR   VFR Marginal   IFR   IFR Intensif   IFR Très Intensif
Visi : 
Plafond : 
>= 8 km
>= 3000ft
5 à 8 km
1000 à 3000 ft
1500m à 5 km
500 à 1000 ft
800 à 1500m
200 à 500 ft
< 800m
< 200 ft
Symboles :   Orages  Brouillard  Fortes neiges  Fortes précipitations  Vent > 20 kt
SIGMETs :   Divers  Orages  Givrage  Turbulence  Onde Orograph.  Cendres Volcan.






- Altitude de l'aérodrome : 383 ft
- Code IATA : UDJ


UKLU - Uzhhorod

DERNIER METAR :
  • 151330Z 35003MPS 9999 NSC M02/M12 Q1016 R10/290160 NOSIG

METARs EXPIRÉS :
  • 151300Z 36003MPS 9999 NSC M02/M12 Q1015 R10/290160 NOSIG
  • 151230Z 32002MPS 9999 NSC M02/M10 Q1015 R10/290160 NOSIG
  • 151200Z 31002MPS 9999 NSC M02/M10 Q1015 R10/290160 NOSIG
  • 151130Z 35004MPS 9999 NSC M02/M09 Q1015 R10/290160 NOSIG

TAF TAF UKLU
Valide du 15 à 12h jusqu'au 15 à 21h UTC


151105Z 1512/1521 32004MPS 9999 NSC TXM02/1512Z TNM07/1521Z
TEMPO 1512/1518 36005G10MPS



MET'MAP, la Météo Aéronautique d'un coup d'oeil ! - Copyright ORBIFLY Décembre 2007 - Disclaimer

ORBIFLY MET'MAP TEAM :

Programmation & Développement : Alexandra Zaïnal
Sur une idée originale de : Baudouin d'Aumeries
Assistance à la programmation : Marc-Olivier Méhu
Soutien technique & logistique : Manuel Goepfert

Contact : metmap@orbifly.com




SOURCES & CREDITS :

   NOAA